Terminal Aerodrome Forecast
Issued by NWS

Home | Current Version | Previous Version | Text Only | Print | Product List | Glossary On
Versions: 1 2 3 4 5 6 7 8 9 10 11 12 13 14 15 16 17 18 19 20 21 22
541
FTUS46 KSEW 121402 AAA
TAFSEA
TAF AMD
KSEA 121402Z 1214/1318 17006KT P6SM -RA SCT006 OVC025
      TEMPO 1214/1216 5SM -RA BR BKN006 OVC025
     FM121900 20014KT P6SM VCSH SCT025 BKN040 BKN060
     FM131000 19010KT P6SM VCSH BKN025 OVC040
      TEMPO 1310/1314 -SHRA OVC020=

USA.gov is the U.S. government's official web portal to all federal, state and local government web resources and services.